sensor_id;sensor_type;location;lat;lon;timestamp;temperature;humidity
18888;DHT22;9576;47.792;9.628;2022-12-29T00:01:39;2.70;99.90
18888;DHT22;9576;47.792;9.628;2022-12-29T00:04:42;2.70;99.90
18888;DHT22;9576;47.792;9.628;2022-12-29T00:07:45;2.70;99.90
18888;DHT22;9576;47.792;9.628;2022-12-29T00:10:47;2.80;99.90
18888;DHT22;9576;47.792;9.628;2022-12-29T00:13:49;2.90;99.90
18888;DHT22;9576;47.792;9.628;2022-12-29T00:17:08;3.00;99.90
18888;DHT22;9576;47.792;9.628;2022-12-29T00:20:10;3.20;99.90
18888;DHT22;9576;47.792;9.628;2022-12-29T00:23:31;3.30;99.90
18888;DHT22;9576;47.792;9.628;2022-12-29T00:26:54;3.40;99.90
18888;DHT22;9576;47.792;9.628;2022-12-29T00:30:16;3.50;99.90
18888;DHT22;9576;47.792;9.628;2022-12-29T00:33:36;3.50;99.90
18888;DHT22;9576;47.792;9.628;2022-12-29T00:36:56;3.50;99.90
18888;DHT22;9576;47.792;9.628;2022-12-29T00:39:59;3.60;99.90
18888;DHT22;9576;47.792;9.628;2022-12-29T00:43:21;3.60;99.90
18888;DHT22;9576;47.792;9.628;2022-12-29T00:46:42;3.70;99.90
18888;DHT22;9576;47.792;9.628;2022-12-29T00:49:44;3.50;99.90
18888;DHT22;9576;47.792;9.628;2022-12-29T00:52:46;3.50;99.90
18888;DHT22;9576;47.792;9.628;2022-12-29T00:55:49;3.60;99.90
18888;DHT22;9576;47.792;9.628;2022-12-29T00:58:51;3.50;99.90
18888;DHT22;9576;47.792;9.628;2022-12-29T01:01:53;3.50;99.90
18888;DHT22;9576;47.792;9.628;2022-12-29T01:04:55;3.40;99.90
18888;DHT22;9576;47.792;9.628;2022-12-29T01:07:57;3.40;99.90
18888;DHT22;9576;47.792;9.628;2022-12-29T01:11:03;3.40;99.90
18888;DHT22;9576;47.792;9.628;2022-12-29T01:14:04;3.40;99.90
18888;DHT22;9576;47.792;9.628;2022-12-29T01:17:06;3.50;99.90
18888;DHT22;9576;47.792;9.628;2022-12-29T01:20:10;3.60;99.90
18888;DHT22;9576;47.792;9.628;2022-12-29T01:23:12;3.60;99.90
18888;DHT22;9576;47.792;9.628;2022-12-29T01:26:17;3.70;99.90
18888;DHT22;9576;47.792;9.628;2022-12-29T01:29:19;3.70;99.90
18888;DHT22;9576;47.792;9.628;2022-12-29T01:32:21;3.80;99.90
18888;DHT22;9576;47.792;9.628;2022-12-29T01:35:23;3.80;99.90
18888;DHT22;9576;47.792;9.628;2022-12-29T01:38:25;3.80;99.90
18888;DHT22;9576;47.792;9.628;2022-12-29T01:41:28;3.70;99.90
18888;DHT22;9576;47.792;9.628;2022-12-29T01:44:50;3.60;99.90
18888;DHT22;9576;47.792;9.628;2022-12-29T01:47:55;3.50;99.90
18888;DHT22;9576;47.792;9.628;2022-12-29T01:50:58;3.60;99.90
18888;DHT22;9576;47.792;9.628;2022-12-29T01:54:02;3.50;99.90
18888;DHT22;9576;47.792;9.628;2022-12-29T01:57:09;3.60;99.90
18888;DHT22;9576;47.792;9.628;2022-12-29T02:00:14;3.60;99.90
18888;DHT22;9576;47.792;9.628;2022-12-29T02:03:16;3.60;99.90
18888;DHT22;9576;47.792;9.628;2022-12-29T02:06:22;3.70;99.90
18888;DHT22;9576;47.792;9.628;2022-12-29T02:09:26;3.80;99.90
18888;DHT22;9576;47.792;9.628;2022-12-29T02:12:29;3.80;99.90
18888;DHT22;9576;47.792;9.628;2022-12-29T02:15:38;3.90;99.90
18888;DHT22;9576;47.792;9.628;2022-12-29T02:18:48;3.90;99.90
18888;DHT22;9576;47.792;9.628;2022-12-29T02:22:05;4.00;99.90
18888;DHT22;9576;47.792;9.628;2022-12-29T02:29:28;4.20;99.90
18888;DHT22;9576;47.792;9.628;2022-12-29T02:32:37;4.20;99.90
18888;DHT22;9576;47.792;9.628;2022-12-29T02:35:47;4.10;99.90
18888;DHT22;9576;47.792;9.628;2022-12-29T02:38:59;4.10;99.90
18888;DHT22;9576;47.792;9.628;2022-12-29T02:42:08;4.10;99.90
18888;DHT22;9576;47.792;9.628;2022-12-29T02:45:15;4.00;99.90
18888;DHT22;9576;47.792;9.628;2022-12-29T02:48:24;4.10;99.90
18888;DHT22;9576;47.792;9.628;2022-12-29T02:51:31;4.30;99.90
18888;DHT22;9576;47.792;9.628;2022-12-29T02:54:35;4.50;99.90
18888;DHT22;9576;47.792;9.628;2022-12-29T02:57:43;4.50;99.90
18888;DHT22;9576;47.792;9.628;2022-12-29T03:00:56;4.40;99.90
18888;DHT22;9576;47.792;9.628;2022-12-29T03:04:21;4.10;99.90
18888;DHT22;9576;47.792;9.628;2022-12-29T03:07:35;4.00;99.90
18888;DHT22;9576;47.792;9.628;2022-12-29T03:10:46;4.00;99.90
18888;DHT22;9576;47.792;9.628;2022-12-29T03:13:51;4.30;99.90
18888;DHT22;9576;47.792;9.628;2022-12-29T03:17:19;4.70;99.90
18888;DHT22;9576;47.792;9.628;2022-12-29T03:20:31;5.20;99.90
18888;DHT22;9576;47.792;9.628;2022-12-29T03:23:35;5.70;99.90
18888;DHT22;9576;47.792;9.628;2022-12-29T03:26:37;6.00;99.90
18888;DHT22;9576;47.792;9.628;2022-12-29T03:29:45;6.70;99.90
18888;DHT22;9576;47.792;9.628;2022-12-29T03:32:54;6.90;99.90
18888;DHT22;9576;47.792;9.628;2022-12-29T03:36:01;7.00;99.90
18888;DHT22;9576;47.792;9.628;2022-12-29T03:39:09;7.00;99.90
18888;DHT22;9576;47.792;9.628;2022-12-29T03:42:15;7.00;99.90
18888;DHT22;9576;47.792;9.628;2022-12-29T03:45:17;7.00;99.90
18888;DHT22;9576;47.792;9.628;2022-12-29T03:48:20;6.90;99.90
18888;DHT22;9576;47.792;9.628;2022-12-29T03:51:24;6.70;99.90
18888;DHT22;9576;47.792;9.628;2022-12-29T03:54:26;6.70;99.90
18888;DHT22;9576;47.792;9.628;2022-12-29T03:57:28;6.70;99.90
18888;DHT22;9576;47.792;9.628;2022-12-29T04:00:30;7.00;99.90
18888;DHT22;9576;47.792;9.628;2022-12-29T04:03:32;7.00;99.90
18888;DHT22;9576;47.792;9.628;2022-12-29T04:06:35;7.10;99.90
18888;DHT22;9576;47.792;9.628;2022-12-29T04:09:37;7.20;99.90
18888;DHT22;9576;47.792;9.628;2022-12-29T04:12:39;7.30;99.90
18888;DHT22;9576;47.792;9.628;2022-12-29T04:15:42;7.30;99.90
18888;DHT22;9576;47.792;9.628;2022-12-29T04:18:45;7.30;99.90
18888;DHT22;9576;47.792;9.628;2022-12-29T04:21:49;7.30;99.90
18888;DHT22;9576;47.792;9.628;2022-12-29T04:24:50;7.50;99.90
18888;DHT22;9576;47.792;9.628;2022-12-29T04:27:52;7.50;99.90
18888;DHT22;9576;47.792;9.628;2022-12-29T04:30:54;7.60;99.90
18888;DHT22;9576;47.792;9.628;2022-12-29T04:33:56;7.60;99.90
18888;DHT22;9576;47.792;9.628;2022-12-29T04:36:59;7.60;99.90
18888;DHT22;9576;47.792;9.628;2022-12-29T04:40:01;7.60;99.90
18888;DHT22;9576;47.792;9.628;2022-12-29T04:43:03;7.60;99.90
18888;DHT22;9576;47.792;9.628;2022-12-29T04:46:05;7.70;99.90
18888;DHT22;9576;47.792;9.628;2022-12-29T04:49:07;7.80;99.90
18888;DHT22;9576;47.792;9.628;2022-12-29T04:52:11;7.80;99.90
18888;DHT22;9576;47.792;9.628;2022-12-29T04:55:13;7.90;99.90
18888;DHT22;9576;47.792;9.628;2022-12-29T04:58:15;8.00;99.90
18888;DHT22;9576;47.792;9.628;2022-12-29T05:01:17;8.00;99.90
18888;DHT22;9576;47.792;9.628;2022-12-29T05:04:18;7.90;99.90
18888;DHT22;9576;47.792;9.628;2022-12-29T05:07:22;7.90;99.90
18888;DHT22;9576;47.792;9.628;2022-12-29T05:10:24;7.80;99.90
18888;DHT22;9576;47.792;9.628;2022-12-29T05:13:26;7.80;99.90
18888;DHT22;9576;47.792;9.628;2022-12-29T05:16:28;7.80;99.90
18888;DHT22;9576;47.792;9.628;2022-12-29T05:19:30;7.70;99.90
18888;DHT22;9576;47.792;9.628;2022-12-29T05:22:33;7.60;99.90
18888;DHT22;9576;47.792;9.628;2022-12-29T05:25:35;7.50;99.90
18888;DHT22;9576;47.792;9.628;2022-12-29T05:28:37;7.40;99.90
18888;DHT22;9576;47.792;9.628;2022-12-29T05:31:39;7.30;99.90
18888;DHT22;9576;47.792;9.628;2022-12-29T05:34:41;7.20;99.90
18888;DHT22;9576;47.792;9.628;2022-12-29T05:37:44;7.10;99.90
18888;DHT22;9576;47.792;9.628;2022-12-29T05:40:46;7.30;99.90
18888;DHT22;9576;47.792;9.628;2022-12-29T05:43:48;7.30;99.90
18888;DHT22;9576;47.792;9.628;2022-12-29T05:46:49;7.40;99.90
18888;DHT22;9576;47.792;9.628;2022-12-29T05:49:51;7.40;99.90
18888;DHT22;9576;47.792;9.628;2022-12-29T05:52:55;7.40;99.90
18888;DHT22;9576;47.792;9.628;2022-12-29T05:55:57;7.40;99.90
18888;DHT22;9576;47.792;9.628;2022-12-29T05:58:58;7.40;99.90
18888;DHT22;9576;47.792;9.628;2022-12-29T06:02:00;7.50;99.90
18888;DHT22;9576;47.792;9.628;2022-12-29T06:05:03;7.50;99.90
18888;DHT22;9576;47.792;9.628;2022-12-29T06:08:06;7.60;99.90
18888;DHT22;9576;47.792;9.628;2022-12-29T06:11:08;7.70;99.90
18888;DHT22;9576;47.792;9.628;2022-12-29T06:14:10;7.70;99.90
18888;DHT22;9576;47.792;9.628;2022-12-29T06:17:12;7.70;99.90
18888;DHT22;9576;47.792;9.628;2022-12-29T06:20:14;7.80;99.90
18888;DHT22;9576;47.792;9.628;2022-12-29T06:23:17;7.80;99.90
18888;DHT22;9576;47.792;9.628;2022-12-29T06:26:19;7.80;99.90
18888;DHT22;9576;47.792;9.628;2022-12-29T06:29:21;7.70;99.90
18888;DHT22;9576;47.792;9.628;2022-12-29T06:32:23;7.70;99.90
18888;DHT22;9576;47.792;9.628;2022-12-29T06:35:25;7.70;99.90
18888;DHT22;9576;47.792;9.628;2022-12-29T06:38:28;7.70;99.90
18888;DHT22;9576;47.792;9.628;2022-12-29T06:41:30;7.70;99.90
18888;DHT22;9576;47.792;9.628;2022-12-29T06:44:33;7.80;99.90
18888;DHT22;9576;47.792;9.628;2022-12-29T06:47:35;7.90;99.90
18888;DHT22;9576;47.792;9.628;2022-12-29T06:50:37;7.90;99.90
18888;DHT22;9576;47.792;9.628;2022-12-29T06:53:40;8.00;99.90
18888;DHT22;9576;47.792;9.628;2022-12-29T06:56:42;8.00;99.90
18888;DHT22;9576;47.792;9.628;2022-12-29T06:59:44;8.10;99.90
18888;DHT22;9576;47.792;9.628;2022-12-29T07:02:46;8.10;99.90
18888;DHT22;9576;47.792;9.628;2022-12-29T07:05:48;8.10;99.90
18888;DHT22;9576;47.792;9.628;2022-12-29T07:08:51;8.00;99.90
18888;DHT22;9576;47.792;9.628;2022-12-29T07:11:55;8.00;99.90
18888;DHT22;9576;47.792;9.628;2022-12-29T07:14:57;8.00;99.90
18888;DHT22;9576;47.792;9.628;2022-12-29T07:17:59;7.90;99.90
18888;DHT22;9576;47.792;9.628;2022-12-29T07:21:02;7.80;99.90
18888;DHT22;9576;47.792;9.628;2022-12-29T07:24:07;7.70;99.90
18888;DHT22;9576;47.792;9.628;2022-12-29T07:27:09;7.70;99.90
18888;DHT22;9576;47.792;9.628;2022-12-29T07:30:12;7.60;99.90
18888;DHT22;9576;47.792;9.628;2022-12-29T07:33:14;7.60;99.90
18888;DHT22;9576;47.792;9.628;2022-12-29T07:36:16;7.60;99.90
18888;DHT22;9576;47.792;9.628;2022-12-29T07:39:19;7.70;99.90
18888;DHT22;9576;47.792;9.628;2022-12-29T07:42:21;7.70;99.90
18888;DHT22;9576;47.792;9.628;2022-12-29T07:45:23;7.70;99.90
18888;DHT22;9576;47.792;9.628;2022-12-29T07:48:25;7.80;99.90
18888;DHT22;9576;47.792;9.628;2022-12-29T07:51:27;7.80;99.90
18888;DHT22;9576;47.792;9.628;2022-12-29T07:54:30;7.80;99.90
18888;DHT22;9576;47.792;9.628;2022-12-29T07:57:32;7.70;99.90
18888;DHT22;9576;47.792;9.628;2022-12-29T08:00:34;7.70;99.90
18888;DHT22;9576;47.792;9.628;2022-12-29T08:03:36;7.70;99.90
18888;DHT22;9576;47.792;9.628;2022-12-29T08:06:38;7.80;99.90
18888;DHT22;9576;47.792;9.628;2022-12-29T08:09:41;7.80;99.90
18888;DHT22;9576;47.792;9.628;2022-12-29T08:12:44;7.80;99.90
18888;DHT22;9576;47.792;9.628;2022-12-29T08:15:45;7.80;99.90
18888;DHT22;9576;47.792;9.628;2022-12-29T08:18:47;7.80;99.90
18888;DHT22;9576;47.792;9.628;2022-12-29T08:21:49;7.90;99.90
18888;DHT22;9576;47.792;9.628;2022-12-29T08:24:53;7.90;99.90
18888;DHT22;9576;47.792;9.628;2022-12-29T08:27:55;8.00;99.90
18888;DHT22;9576;47.792;9.628;2022-12-29T08:30:57;8.10;99.90
18888;DHT22;9576;47.792;9.628;2022-12-29T08:34:00;8.20;99.90
18888;DHT22;9576;47.792;9.628;2022-12-29T08:37:04;8.20;99.90
18888;DHT22;9576;47.792;9.628;2022-12-29T08:40:08;8.20;99.90
18888;DHT22;9576;47.792;9.628;2022-12-29T08:43:10;8.20;99.90
18888;DHT22;9576;47.792;9.628;2022-12-29T08:46:12;8.30;99.90
18888;DHT22;9576;47.792;9.628;2022-12-29T08:49:14;8.30;99.90
18888;DHT22;9576;47.792;9.628;2022-12-29T08:52:16;8.20;99.90
18888;DHT22;9576;47.792;9.628;2022-12-29T08:55:20;8.20;99.90
18888;DHT22;9576;47.792;9.628;2022-12-29T08:58:22;8.10;99.90
18888;DHT22;9576;47.792;9.628;2022-12-29T09:01:23;8.10;99.90
18888;DHT22;9576;47.792;9.628;2022-12-29T09:04:25;8.10;99.90
18888;DHT22;9576;47.792;9.628;2022-12-29T09:07:27;8.20;99.90
18888;DHT22;9576;47.792;9.628;2022-12-29T09:10:31;8.20;99.90
18888;DHT22;9576;47.792;9.628;2022-12-29T09:13:33;8.20;99.90
18888;DHT22;9576;47.792;9.628;2022-12-29T09:16:35;8.30;99.90
18888;DHT22;9576;47.792;9.628;2022-12-29T09:19:37;8.30;99.90
18888;DHT22;9576;47.792;9.628;2022-12-29T09:22:40;8.30;99.90
18888;DHT22;9576;47.792;9.628;2022-12-29T09:25:43;8.40;99.90
18888;DHT22;9576;47.792;9.628;2022-12-29T09:28:45;8.40;99.90
18888;DHT22;9576;47.792;9.628;2022-12-29T09:31:47;8.40;99.90
18888;DHT22;9576;47.792;9.628;2022-12-29T09:34:49;8.50;99.90
18888;DHT22;9576;47.792;9.628;2022-12-29T09:37:51;8.50;99.90
18888;DHT22;9576;47.792;9.628;2022-12-29T09:40:56;8.60;99.90
18888;DHT22;9576;47.792;9.628;2022-12-29T09:44:08;8.70;99.90
18888;DHT22;9576;47.792;9.628;2022-12-29T09:47:16;8.80;99.90
18888;DHT22;9576;47.792;9.628;2022-12-29T09:50:22;8.90;99.90
18888;DHT22;9576;47.792;9.628;2022-12-29T09:53:29;9.10;99.90
18888;DHT22;9576;47.792;9.628;2022-12-29T09:56:34;9.20;99.90
18888;DHT22;9576;47.792;9.628;2022-12-29T09:59:39;9.30;99.90
18888;DHT22;9576;47.792;9.628;2022-12-29T10:02:44;9.40;99.90
18888;DHT22;9576;47.792;9.628;2022-12-29T10:05:49;9.50;99.90
18888;DHT22;9576;47.792;9.628;2022-12-29T10:09:00;9.70;99.90
18888;DHT22;9576;47.792;9.628;2022-12-29T10:12:11;9.80;99.90
18888;DHT22;9576;47.792;9.628;2022-12-29T10:15:33;9.90;99.90
18888;DHT22;9576;47.792;9.628;2022-12-29T10:18:55;10.10;99.90
18888;DHT22;9576;47.792;9.628;2022-12-29T10:22:10;10.40;99.90
18888;DHT22;9576;47.792;9.628;2022-12-29T10:25:17;10.60;99.90
18888;DHT22;9576;47.792;9.628;2022-12-29T10:28:23;10.80;99.90
18888;DHT22;9576;47.792;9.628;2022-12-29T10:31:32;11.00;99.90
18888;DHT22;9576;47.792;9.628;2022-12-29T10:34:38;11.10;99.90
18888;DHT22;9576;47.792;9.628;2022-12-29T10:37:46;11.20;99.90
18888;DHT22;9576;47.792;9.628;2022-12-29T10:40:54;11.30;99.90
18888;DHT22;9576;47.792;9.628;2022-12-29T10:44:00;11.30;99.90
18888;DHT22;9576;47.792;9.628;2022-12-29T10:47:03;11.30;99.90
18888;DHT22;9576;47.792;9.628;2022-12-29T10:50:06;11.30;99.90
18888;DHT22;9576;47.792;9.628;2022-12-29T10:53:14;11.30;99.90
18888;DHT22;9576;47.792;9.628;2022-12-29T10:56:25;11.20;99.90
18888;DHT22;9576;47.792;9.628;2022-12-29T10:59:32;11.20;99.90
18888;DHT22;9576;47.792;9.628;2022-12-29T11:02:52;11.30;99.90
18888;DHT22;9576;47.792;9.628;2022-12-29T11:06:00;11.30;99.90
18888;DHT22;9576;47.792;9.628;2022-12-29T11:09:12;11.40;99.90
18888;DHT22;9576;47.792;9.628;2022-12-29T11:12:24;11.40;99.90
18888;DHT22;9576;47.792;9.628;2022-12-29T11:15:29;11.40;99.90
18888;DHT22;9576;47.792;9.628;2022-12-29T11:18:40;11.40;99.90
18888;DHT22;9576;47.792;9.628;2022-12-29T11:21:43;11.50;99.90
18888;DHT22;9576;47.792;9.628;2022-12-29T11:24:46;11.50;99.90
18888;DHT22;9576;47.792;9.628;2022-12-29T11:27:56;11.50;99.90
18888;DHT22;9576;47.792;9.628;2022-12-29T11:31:01;11.50;99.90
18888;DHT22;9576;47.792;9.628;2022-12-29T11:34:06;11.40;99.90
18888;DHT22;9576;47.792;9.628;2022-12-29T11:37:12;11.40;99.90
18888;DHT22;9576;47.792;9.628;2022-12-29T11:40:17;11.40;99.90
18888;DHT22;9576;47.792;9.628;2022-12-29T11:43:23;11.40;99.90
18888;DHT22;9576;47.792;9.628;2022-12-29T11:46:28;11.40;99.90
18888;DHT22;9576;47.792;9.628;2022-12-29T11:49:32;11.40;99.90
18888;DHT22;9576;47.792;9.628;2022-12-29T11:52:35;11.50;99.90
18888;DHT22;9576;47.792;9.628;2022-12-29T11:55:39;11.50;99.90
18888;DHT22;9576;47.792;9.628;2022-12-29T11:58:42;11.60;99.90
18888;DHT22;9576;47.792;9.628;2022-12-29T12:01:47;11.60;99.90
18888;DHT22;9576;47.792;9.628;2022-12-29T12:04:51;11.80;99.90
18888;DHT22;9576;47.792;9.628;2022-12-29T12:07:59;11.90;99.90
18888;DHT22;9576;47.792;9.628;2022-12-29T12:11:08;11.90;99.90
18888;DHT22;9576;47.792;9.628;2022-12-29T12:14:15;12.00;99.90
18888;DHT22;9576;47.792;9.628;2022-12-29T12:17:24;11.90;99.90
18888;DHT22;9576;47.792;9.628;2022-12-29T12:20:42;11.90;99.90
18888;DHT22;9576;47.792;9.628;2022-12-29T12:27:26;11.90;99.90
18888;DHT22;9576;47.792;9.628;2022-12-29T12:30:36;11.90;99.90
18888;DHT22;9576;47.792;9.628;2022-12-29T12:33:44;11.80;99.90
18888;DHT22;9576;47.792;9.628;2022-12-29T12:37:09;11.70;99.90
18888;DHT22;9576;47.792;9.628;2022-12-29T12:43:52;11.50;99.90
18888;DHT22;9576;47.792;9.628;2022-12-29T12:47:28;11.40;99.90
18888;DHT22;9576;47.792;9.628;2022-12-29T12:50:45;11.30;99.90
18888;DHT22;9576;47.792;9.628;2022-12-29T12:54:01;11.30;99.90
18888;DHT22;9576;47.792;9.628;2022-12-29T12:57:14;11.20;99.90
18888;DHT22;9576;47.792;9.628;2022-12-29T13:00:20;11.10;99.90
18888;DHT22;9576;47.792;9.628;2022-12-29T13:03:26;11.10;99.90
18888;DHT22;9576;47.792;9.628;2022-12-29T13:06:39;11.10;99.90
18888;DHT22;9576;47.792;9.628;2022-12-29T13:10:00;11.00;99.90
18888;DHT22;9576;47.792;9.628;2022-12-29T13:13:28;11.00;99.90
18888;DHT22;9576;47.792;9.628;2022-12-29T13:16:37;10.90;99.90
18888;DHT22;9576;47.792;9.628;2022-12-29T13:19:48;10.90;99.90
18888;DHT22;9576;47.792;9.628;2022-12-29T13:22:59;10.80;99.90
18888;DHT22;9576;47.792;9.628;2022-12-29T13:26:11;10.80;99.90
18888;DHT22;9576;47.792;9.628;2022-12-29T13:29:17;10.80;99.90
18888;DHT22;9576;47.792;9.628;2022-12-29T13:32:31;10.80;99.90
18888;DHT22;9576;47.792;9.628;2022-12-29T13:35:47;10.80;99.90
18888;DHT22;9576;47.792;9.628;2022-12-29T13:38:59;10.80;99.90
18888;DHT22;9576;47.792;9.628;2022-12-29T13:42:04;10.80;99.90
18888;DHT22;9576;47.792;9.628;2022-12-29T13:45:11;10.80;99.90
18888;DHT22;9576;47.792;9.628;2022-12-29T13:48:19;10.70;99.90
18888;DHT22;9576;47.792;9.628;2022-12-29T13:51:23;10.70;99.90
18888;DHT22;9576;47.792;9.628;2022-12-29T13:54:34;10.70;99.90
18888;DHT22;9576;47.792;9.628;2022-12-29T13:57:41;10.60;99.90
18888;DHT22;9576;47.792;9.628;2022-12-29T14:00:55;10.60;99.90
18888;DHT22;9576;47.792;9.628;2022-12-29T14:04:11;10.60;99.90
18888;DHT22;9576;47.792;9.628;2022-12-29T14:07:16;10.60;99.90
18888;DHT22;9576;47.792;9.628;2022-12-29T14:10:29;10.60;99.90
18888;DHT22;9576;47.792;9.628;2022-12-29T14:13:31;10.60;99.90
18888;DHT22;9576;47.792;9.628;2022-12-29T14:16:39;10.60;99.90
18888;DHT22;9576;47.792;9.628;2022-12-29T14:19:43;10.60;99.90
18888;DHT22;9576;47.792;9.628;2022-12-29T14:22:56;10.50;99.90
18888;DHT22;9576;47.792;9.628;2022-12-29T14:26:13;10.50;99.90
18888;DHT22;9576;47.792;9.628;2022-12-29T14:29:42;10.50;99.90
18888;DHT22;9576;47.792;9.628;2022-12-29T14:33:02;10.40;99.90
18888;DHT22;9576;47.792;9.628;2022-12-29T14:36:25;10.40;99.90
18888;DHT22;9576;47.792;9.628;2022-12-29T14:39:35;10.40;99.90
18888;DHT22;9576;47.792;9.628;2022-12-29T14:42:39;10.30;99.90
18888;DHT22;9576;47.792;9.628;2022-12-29T14:45:42;10.40;99.90
18888;DHT22;9576;47.792;9.628;2022-12-29T14:48:55;10.40;99.90
18888;DHT22;9576;47.792;9.628;2022-12-29T14:52:07;10.40;99.90
18888;DHT22;9576;47.792;9.628;2022-12-29T14:55:36;10.40;99.90
18888;DHT22;9576;47.792;9.628;2022-12-29T14:58:46;10.50;99.90
18888;DHT22;9576;47.792;9.628;2022-12-29T15:01:53;10.40;99.90
18888;DHT22;9576;47.792;9.628;2022-12-29T15:04:59;10.50;99.90
18888;DHT22;9576;47.792;9.628;2022-12-29T15:08:03;10.50;99.90
18888;DHT22;9576;47.792;9.628;2022-12-29T15:11:12;10.50;99.90
18888;DHT22;9576;47.792;9.628;2022-12-29T15:14:36;10.50;99.90
18888;DHT22;9576;47.792;9.628;2022-12-29T15:17:39;10.50;99.90
18888;DHT22;9576;47.792;9.628;2022-12-29T15:20:42;10.50;99.90
18888;DHT22;9576;47.792;9.628;2022-12-29T15:23:45;10.40;99.90
18888;DHT22;9576;47.792;9.628;2022-12-29T15:26:49;10.40;99.90
18888;DHT22;9576;47.792;9.628;2022-12-29T15:29:59;10.30;99.90
18888;DHT22;9576;47.792;9.628;2022-12-29T15:33:02;10.30;99.90
18888;DHT22;9576;47.792;9.628;2022-12-29T15:36:10;10.20;99.90
18888;DHT22;9576;47.792;9.628;2022-12-29T15:39:18;10.20;99.90
18888;DHT22;9576;47.792;9.628;2022-12-29T15:42:52;10.20;99.90
18888;DHT22;9576;47.792;9.628;2022-12-29T15:45:57;10.10;99.90
18888;DHT22;9576;47.792;9.628;2022-12-29T15:49:05;10.20;99.90
18888;DHT22;9576;47.792;9.628;2022-12-29T15:52:07;10.20;99.90
18888;DHT22;9576;47.792;9.628;2022-12-29T15:55:21;10.20;99.90
18888;DHT22;9576;47.792;9.628;2022-12-29T15:58:29;10.20;99.90
18888;DHT22;9576;47.792;9.628;2022-12-29T16:01:33;10.00;99.90
18888;DHT22;9576;47.792;9.628;2022-12-29T16:04:36;10.00;99.90
18888;DHT22;9576;47.792;9.628;2022-12-29T16:07:38;10.00;99.90
18888;DHT22;9576;47.792;9.628;2022-12-29T16:10:52;9.90;99.90
18888;DHT22;9576;47.792;9.628;2022-12-29T16:13:57;9.90;99.90
18888;DHT22;9576;47.792;9.628;2022-12-29T16:17:02;9.90;99.90
18888;DHT22;9576;47.792;9.628;2022-12-29T16:20:15;9.90;99.90
18888;DHT22;9576;47.792;9.628;2022-12-29T16:23:21;9.90;99.90
18888;DHT22;9576;47.792;9.628;2022-12-29T16:26:24;10.00;99.90
18888;DHT22;9576;47.792;9.628;2022-12-29T16:29:28;9.90;99.90
18888;DHT22;9576;47.792;9.628;2022-12-29T16:32:33;9.90;99.90
18888;DHT22;9576;47.792;9.628;2022-12-29T16:35:39;9.80;99.90
18888;DHT22;9576;47.792;9.628;2022-12-29T16:38:46;9.90;99.90
18888;DHT22;9576;47.792;9.628;2022-12-29T16:41:48;9.80;99.90
18888;DHT22;9576;47.792;9.628;2022-12-29T16:44:56;9.80;99.90
18888;DHT22;9576;47.792;9.628;2022-12-29T16:48:19;9.80;99.90
18888;DHT22;9576;47.792;9.628;2022-12-29T16:51:29;9.90;99.90
18888;DHT22;9576;47.792;9.628;2022-12-29T16:54:34;9.90;99.90
18888;DHT22;9576;47.792;9.628;2022-12-29T16:57:36;9.90;99.90
18888;DHT22;9576;47.792;9.628;2022-12-29T17:00:38;9.90;99.90
18888;DHT22;9576;47.792;9.628;2022-12-29T17:03:46;9.90;99.90
18888;DHT22;9576;47.792;9.628;2022-12-29T17:06:49;9.80;99.90
18888;DHT22;9576;47.792;9.628;2022-12-29T17:09:51;9.90;99.90
18888;DHT22;9576;47.792;9.628;2022-12-29T17:12:54;9.80;99.90
18888;DHT22;9576;47.792;9.628;2022-12-29T17:15:56;9.70;99.90
18888;DHT22;9576;47.792;9.628;2022-12-29T17:18:59;9.70;99.90
18888;DHT22;9576;47.792;9.628;2022-12-29T17:22:02;9.60;99.90
18888;DHT22;9576;47.792;9.628;2022-12-29T17:25:04;9.60;99.90
18888;DHT22;9576;47.792;9.628;2022-12-29T17:28:15;9.60;99.90
18888;DHT22;9576;47.792;9.628;2022-12-29T17:31:20;9.60;99.90
18888;DHT22;9576;47.792;9.628;2022-12-29T17:34:24;9.70;99.90
18888;DHT22;9576;47.792;9.628;2022-12-29T17:37:35;9.70;99.90
18888;DHT22;9576;47.792;9.628;2022-12-29T17:40:37;9.60;99.90
18888;DHT22;9576;47.792;9.628;2022-12-29T17:43:39;9.50;99.90
18888;DHT22;9576;47.792;9.628;2022-12-29T17:46:41;9.50;99.90
18888;DHT22;9576;47.792;9.628;2022-12-29T17:49:44;9.50;99.90
18888;DHT22;9576;47.792;9.628;2022-12-29T17:52:50;9.50;99.90
18888;DHT22;9576;47.792;9.628;2022-12-29T17:55:53;9.40;99.90
18888;DHT22;9576;47.792;9.628;2022-12-29T17:58:55;9.40;99.90
18888;DHT22;9576;47.792;9.628;2022-12-29T18:01:57;9.40;99.90
18888;DHT22;9576;47.792;9.628;2022-12-29T18:05:01;9.40;99.90
18888;DHT22;9576;47.792;9.628;2022-12-29T18:08:03;9.40;99.90
18888;DHT22;9576;47.792;9.628;2022-12-29T18:11:05;9.40;99.90
18888;DHT22;9576;47.792;9.628;2022-12-29T18:14:16;9.30;99.90
18888;DHT22;9576;47.792;9.628;2022-12-29T18:17:18;9.30;99.90
18888;DHT22;9576;47.792;9.628;2022-12-29T18:20:21;9.20;99.90
18888;DHT22;9576;47.792;9.628;2022-12-29T18:23:25;9.10;99.90
18888;DHT22;9576;47.792;9.628;2022-12-29T18:26:28;9.00;99.90
18888;DHT22;9576;47.792;9.628;2022-12-29T18:29:31;9.00;99.90
18888;DHT22;9576;47.792;9.628;2022-12-29T18:32:35;8.80;99.90
18888;DHT22;9576;47.792;9.628;2022-12-29T18:35:41;8.70;99.90
18888;DHT22;9576;47.792;9.628;2022-12-29T18:38:43;8.60;99.90
18888;DHT22;9576;47.792;9.628;2022-12-29T18:41:45;8.50;99.90
18888;DHT22;9576;47.792;9.628;2022-12-29T18:44:47;8.40;99.90
18888;DHT22;9576;47.792;9.628;2022-12-29T18:47:50;8.40;99.90
18888;DHT22;9576;47.792;9.628;2022-12-29T18:50:53;8.40;99.90
18888;DHT22;9576;47.792;9.628;2022-12-29T18:53:55;8.40;99.90
18888;DHT22;9576;47.792;9.628;2022-12-29T18:56:57;8.40;99.90
18888;DHT22;9576;47.792;9.628;2022-12-29T18:59:59;8.40;99.90
18888;DHT22;9576;47.792;9.628;2022-12-29T19:03:01;8.40;99.90
18888;DHT22;9576;47.792;9.628;2022-12-29T19:06:05;8.30;99.90
18888;DHT22;9576;47.792;9.628;2022-12-29T19:09:07;8.40;99.90
18888;DHT22;9576;47.792;9.628;2022-12-29T19:12:12;8.30;99.90
18888;DHT22;9576;47.792;9.628;2022-12-29T19:15:22;8.30;99.90
18888;DHT22;9576;47.792;9.628;2022-12-29T19:18:26;8.20;99.90
18888;DHT22;9576;47.792;9.628;2022-12-29T19:21:29;8.20;99.90
18888;DHT22;9576;47.792;9.628;2022-12-29T19:24:31;8.20;99.90
18888;DHT22;9576;47.792;9.628;2022-12-29T19:27:33;8.20;99.90
18888;DHT22;9576;47.792;9.628;2022-12-29T19:30:35;8.20;99.90
18888;DHT22;9576;47.792;9.628;2022-12-29T19:33:37;8.20;99.90
18888;DHT22;9576;47.792;9.628;2022-12-29T19:36:40;8.20;99.90
18888;DHT22;9576;47.792;9.628;2022-12-29T19:39:42;8.10;99.90
18888;DHT22;9576;47.792;9.628;2022-12-29T19:42:45;8.00;99.90
18888;DHT22;9576;47.792;9.628;2022-12-29T19:45:47;8.00;99.90
18888;DHT22;9576;47.792;9.628;2022-12-29T19:48:51;7.90;99.90
18888;DHT22;9576;47.792;9.628;2022-12-29T19:51:55;7.90;99.90
18888;DHT22;9576;47.792;9.628;2022-12-29T19:54:57;7.90;99.90
18888;DHT22;9576;47.792;9.628;2022-12-29T19:57:59;7.90;99.90
18888;DHT22;9576;47.792;9.628;2022-12-29T20:01:03;8.00;99.90
18888;DHT22;9576;47.792;9.628;2022-12-29T20:04:06;8.00;99.90
18888;DHT22;9576;47.792;9.628;2022-12-29T20:07:09;8.00;99.90
18888;DHT22;9576;47.792;9.628;2022-12-29T20:10:11;8.00;99.90
18888;DHT22;9576;47.792;9.628;2022-12-29T20:13:13;7.90;99.90
18888;DHT22;9576;47.792;9.628;2022-12-29T20:16:16;7.90;99.90
18888;DHT22;9576;47.792;9.628;2022-12-29T20:19:18;7.90;99.90